Time;durP1;ratioP1;P1;durP2;ratioP2;P2;SDS_P1;SDS_P2;PMS_P1;PMS_P2;Temp;Humidity;BMP_temperature;BMP_pressure;BME280_temperature;BME280_humidity;BME280_pressure;Samples;Min_cycle;Max_cycle;Signal;HPM_P1;HPM_P2
2023/07/14 00:00:32;;;;;;;3.97;1.65;;;17.00;99.90;;;;;;5137419;27;20437;-49
2023/07/14 00:02:59;;;;;;;4.50;1.90;;;17.00;99.90;;;;;;5137276;27;20043;-50
2023/07/14 00:05:28;;;;;;;4.00;1.70;;;17.00;99.90;;;;;;5137280;27;20039;-49
2023/07/14 00:07:56;;;;;;;4.05;1.80;;;17.00;99.90;;;;;;5137502;27;20099;-49
2023/07/14 00:10:31;;;;;;;4.00;2.00;;;17.00;99.90;;;;;;5137138;27;20043;-50
2023/07/14 00:12:58;;;;;;;4.38;1.80;;;16.90;99.90;;;;;;5137014;27;20564;-49
2023/07/14 00:15:25;;;;;;;3.75;1.83;;;16.90;99.90;;;;;;5136922;27;20126;-50
2023/07/14 00:17:52;;;;;;;;;;;16.90;99.90;;;;;;5137428;27;20035;-50
2023/07/14 00:20:22;;;;;;;5.68;2.40;;;16.90;99.90;;;;;;5137017;27;20402;-50
2023/07/14 00:22:49;;;;;;;4.15;1.70;;;16.80;99.90;;;;;;5136992;27;20111;-49
2023/07/14 00:25:16;;;;;;;5.75;2.63;;;16.80;99.90;;;;;;5137067;27;20055;-51
2023/07/14 00:27:42;;;;;;;;;;;16.80;99.90;;;;;;5137040;27;20047;-49
2023/07/14 00:30:21;;;;;;;4.35;2.20;;;16.80;99.90;;;;;;5136564;27;19919;-49
2023/07/14 00:32:49;;;;;;;5.95;2.47;;;16.70;99.90;;;;;;5136752;27;20082;-48
2023/07/14 00:35:23;;;;;;;5.03;2.95;;;16.60;99.90;;;;;;5136691;27;20155;-50
2023/07/14 00:37:51;;;;;;;5.72;2.13;;;16.50;99.90;;;;;;5136521;27;20105;-49
2023/07/14 00:40:21;;;;;;;4.57;2.22;;;16.40;99.90;;;;;;5136480;27;20058;-49
2023/07/14 00:42:53;;;;;;;4.80;2.20;;;16.40;99.90;;;;;;5137039;27;20043;-51
2023/07/14 00:45:21;;;;;;;5.25;2.40;;;16.40;99.90;;;;;;5136536;27;20078;-49
2023/07/14 00:47:52;;;;;;;4.15;2.28;;;16.40;99.90;;;;;;5118150;27;20130;-50
2023/07/14 00:50:46;;;;;;;5.40;2.08;;;16.40;99.90;;;;;;5136559;27;20441;-50
2023/07/14 00:53:23;;;;;;;6.45;2.47;;;16.40;99.90;;;;;;5136718;27;20043;-49
2023/07/14 00:55:55;;;;;;;;;;;16.40;99.90;;;;;;5118752;27;20063;-49
2023/07/14 00:58:24;;;;;;;8.05;2.53;;;16.40;99.90;;;;;;5136264;27;19919;-50
2023/07/14 01:01:10;;;;;;;4.50;2.17;;;16.40;99.90;;;;;;5136108;27;20050;-51
2023/07/14 01:03:41;;;;;;;4.50;2.17;;;16.40;99.90;;;;;;5118053;27;20047;-50
2023/07/14 01:06:29;;;;;;;5.07;2.33;;;16.40;99.90;;;;;;5136120;27;20411;-50
2023/07/14 01:09:04;;;;;;;5.47;1.85;;;16.40;99.90;;;;;;5117886;27;20099;-52
2023/07/14 01:11:52;;;;;;;3.78;1.80;;;16.40;99.90;;;;;;5136568;27;20353;-50
2023/07/14 01:14:23;;;;;;;5.88;2.13;;;16.30;99.90;;;;;;5136355;27;20089;-49
2023/07/14 01:16:51;;;;;;;5.13;2.10;;;16.30;99.90;;;;;;5135914;27;20507;-49
2023/07/14 01:19:39;;;;;;;4.20;1.75;;;16.20;99.90;;;;;;5135657;27;20108;-49
2023/07/14 01:22:17;;;;;;;5.57;2.15;;;16.20;99.90;;;;;;5135558;27;20039;-49
2023/07/14 01:25:16;;;;;;;5.85;2.42;;;16.20;99.90;;;;;;5135719;27;20043;-49
2023/07/14 01:27:42;;;;;;;7.65;2.65;;;16.20;99.90;;;;;;5101594;27;20051;-48
2023/07/14 01:30:08;;;;;;;6.47;2.42;;;16.10;99.90;;;;;;5135773;27;20061;-48
2023/07/14 01:32:37;;;;;;;6.15;2.80;;;16.10;99.90;;;;;;5135257;27;20031;-50
2023/07/14 01:35:07;;;;;;;4.47;2.40;;;16.10;99.90;;;;;;5135506;27;20051;-49
2023/07/14 01:37:39;;;;;;;4.28;2.42;;;16.10;99.90;;;;;;5135444;27;20042;-49
2023/07/14 01:40:13;;;;;;;5.38;2.47;;;16.00;99.90;;;;;;5134845;27;20495;-49
2023/07/14 01:42:49;;;;;;;7.05;2.65;;;16.00;99.90;;;;;;5135243;27;20047;-49
2023/07/14 01:45:17;;;;;;;6.03;2.90;;;15.90;99.90;;;;;;5135269;27;20058;-50
2023/07/14 01:47:47;;;;;;;6.07;2.38;;;15.90;99.90;;;;;;5135287;27;20046;-48
2023/07/14 01:50:31;;;;;;;5.88;2.50;;;15.90;99.90;;;;;;5135217;27;20035;-50
2023/07/14 01:53:03;;;;;;;5.38;2.80;;;15.90;99.90;;;;;;5099888;27;20065;-50
2023/07/14 01:55:34;;;;;;;5.22;2.60;;;15.90;99.90;;;;;;5135065;27;20051;-49
2023/07/14 01:58:05;;;;;;;5.85;2.80;;;15.90;99.90;;;;;;5135277;27;20466;-49
2023/07/14 02:00:32;;;;;;;5.45;2.88;;;15.80;99.90;;;;;;5135564;27;20096;-49
2023/07/14 02:02:59;;;;;;;;;;;15.90;99.90;;;;;;5135434;27;20047;-49
2023/07/14 02:05:31;;;;;;;5.03;2.80;;;15.80;99.90;;;;;;5134863;27;19920;-49
2023/07/14 02:08:01;;;;;;;7.57;3.17;;;15.80;99.90;;;;;;5134632;27;20407;-49
2023/07/14 02:10:27;;;;;;;5.63;2.55;;;15.70;99.90;;;;;;5134918;27;20086;-50
2023/07/14 02:12:54;;;;;;;6.55;3.33;;;15.70;99.90;;;;;;5134737;27;20127;-51
2023/07/14 02:15:24;;;;;;;6.15;3.03;;;15.70;99.90;;;;;;5135054;27;20047;-49
2023/07/14 02:17:50;;;;;;;5.57;3.00;;;15.70;99.90;;;;;;5134630;27;20078;-50
2023/07/14 02:20:32;;;;;;;7.35;3.38;;;15.60;99.90;;;;;;5134816;27;20122;-49
2023/07/14 02:23:01;;;;;;;6.57;3.22;;;15.60;99.90;;;;;;5134820;27;20391;-49
2023/07/14 02:25:31;;;;;;;5.47;3.38;;;15.60;99.90;;;;;;5116841;27;20062;-48
2023/07/14 02:27:57;;;;;;;6.47;3.15;;;15.50;99.90;;;;;;5134728;27;20039;-49
2023/07/14 02:30:26;;;;;;;6.43;3.35;;;15.50;99.90;;;;;;5134632;27;20050;-49
2023/07/14 02:33:06;;;;;;;6.25;3.47;;;15.40;99.90;;;;;;5116140;27;20046;-48
2023/07/14 02:35:43;;;;;;;6.85;3.45;;;15.50;99.90;;;;;;5134881;27;20065;-49
2023/07/14 02:38:16;;;;;;;6.82;3.35;;;15.40;99.90;;;;;;5116816;28;20368;-51
2023/07/14 02:40:51;;;;;;;6.60;3.90;;;15.40;99.90;;;;;;5099569;28;20134;-48
2023/07/14 02:43:19;;;;;;;6.15;3.35;;;15.50;99.90;;;;;;5134602;28;20048;-48
2023/07/14 02:45:57;;;;;;;7.60;3.60;;;15.50;99.90;;;;;;5134857;28;20043;-50
2023/07/14 02:48:33;;;;;;;7.45;4.32;;;15.50;99.90;;;;;;5134694;28;20039;-50
2023/07/14 02:50:59;;;;;;;7.65;4.22;;;15.50;99.90;;;;;;5136595;27;20047;-49
2023/07/14 02:53:24;;;;;;;7.50;4.18;;;15.60;99.90;;;;;;5138529;27;20074;-49
2023/07/14 02:55:50;;;;;;;7.28;4.30;;;15.60;99.90;;;;;;5120158;27;20083;-52
2023/07/14 02:58:17;;;;;;;7.60;3.73;;;15.60;99.90;;;;;;5138477;27;20146;-49
2023/07/14 03:00:43;;;;;;;8.45;4.55;;;15.60;99.90;;;;;;5103313;27;20289;-49
2023/07/14 03:03:09;;;;;;;9.05;3.88;;;15.60;99.90;;;;;;5138838;27;20049;-51
2023/07/14 03:05:35;;;;;;;9.23;4.57;;;15.60;99.90;;;;;;5138434;27;20480;-50
2023/07/14 03:08:01;;;;;;;7.70;3.80;;;15.60;99.90;;;;;;5138373;27;20138;-49
2023/07/14 03:10:27;;;;;;;7.93;4.45;;;15.60;99.90;;;;;;5138372;27;20142;-49
2023/07/14 03:12:53;;;;;;;7.55;4.55;;;15.60;99.90;;;;;;5119678;27;20035;-49
2023/07/14 03:15:20;;;;;;;8.32;4.10;;;15.60;99.90;;;;;;5138647;27;20492;-49
2023/07/14 03:17:46;;;;;;;8.57;4.55;;;15.70;99.90;;;;;;5138726;27;20047;-49
2023/07/14 03:20:14;;;;;;;9.32;4.93;;;15.70;99.90;;;;;;5138211;27;20114;-49
2023/07/14 03:22:39;;;;;;;9.63;5.10;;;15.70;99.90;;;;;;5138087;27;20522;-49
2023/07/14 03:25:06;;;;;;;10.20;5.40;;;15.60;99.90;;;;;;5138022;27;20043;-50
2023/07/14 03:27:32;;;;;;;8.20;4.63;;;15.60;99.90;;;;;;5138303;27;20043;-50
2023/07/14 03:29:58;;;;;;;7.57;4.38;;;15.60;99.90;;;;;;5119847;27;20422;-51
2023/07/14 03:32:23;;;;;;;9.23;4.57;;;15.60;99.90;;;;;;5119575;27;20088;-50
2023/07/14 03:34:49;;;;;;;8.43;4.90;;;15.70;99.90;;;;;;5119797;27;20058;-49
2023/07/14 03:37:15;;;;;;;7.72;4.20;;;15.70;99.90;;;;;;5137847;27;20075;-49
2023/07/14 03:39:40;;;;;;;8.98;4.28;;;15.70;99.90;;;;;;5119260;27;20441;-49
2023/07/14 03:42:06;;;;;;;9.80;4.72;;;15.70;99.90;;;;;;5137750;27;20039;-51
2023/07/14 03:44:32;;;;;;;8.15;4.68;;;15.70;99.90;;;;;;5137645;27;20069;-49
2023/07/14 03:46:59;;;;;;;9.48;4.72;;;15.70;99.90;;;;;;5119563;27;20546;-49
2023/07/14 03:49:25;;;;;;;9.50;4.72;;;15.70;99.90;;;;;;5137543;27;20415;-49
2023/07/14 03:51:52;;;;;;;;;;;15.70;99.90;;;;;;5137829;27;20078;-49
2023/07/14 03:54:17;;;;;;;8.88;4.50;;;15.70;99.90;;;;;;5137271;27;20076;-49
2023/07/14 03:56:44;;;;;;;8.68;5.15;;;15.70;99.90;;;;;;5137226;27;20046;-48
2023/07/14 03:59:11;;;;;;;8.85;4.80;;;15.70;99.90;;;;;;5137717;27;20039;-49
2023/07/14 04:01:37;;;;;;;8.98;5.03;;;15.70;99.90;;;;;;5118784;27;20088;-49
2023/07/14 04:04:03;;;;;;;9.77;4.75;;;15.60;99.90;;;;;;5136859;27;20047;-50
2023/07/14 04:06:28;;;;;;;8.30;4.05;;;15.60;99.90;;;;;;5137162;27;20047;-49
2023/07/14 04:08:57;;;;;;;9.87;4.90;;;15.60;99.90;;;;;;5064610;28;20058;-49
2023/07/14 04:11:23;;;;;;;8.07;4.50;;;15.60;99.90;;;;;;5116611;28;20732;-49
2023/07/14 04:13:49;;;;;;;7.97;4.55;;;15.60;99.90;;;;;;5115713;28;20083;-49
2023/07/14 04:16:14;;;;;;;8.43;4.57;;;15.60;99.90;;;;;;5116576;28;20051;-49
2023/07/14 04:18:40;;;;;;;10.27;4.05;;;15.60;99.90;;;;;;5116630;28;20637;-49
2023/07/14 04:21:12;;;;;;;8.55;4.22;;;15.60;99.90;;;;;;5115361;28;20040;-49
2023/07/14 04:23:39;;;;;;;9.82;4.63;;;15.70;99.90;;;;;;5116293;28;20047;-49
2023/07/14 04:26:07;;;;;;;10.00;4.55;;;15.60;99.90;;;;;;5116421;28;20446;-48
2023/07/14 04:28:35;;;;;;;8.05;3.50;;;15.70;99.90;;;;;;5116329;28;20054;-48
2023/07/14 04:31:01;;;;;;;8.10;4.20;;;15.70;99.90;;;;;;5116227;28;20047;-48
2023/07/14 04:33:28;;;;;;;7.28;3.83;;;15.70;99.90;;;;;;5116221;28;20089;-48
2023/07/14 04:35:54;;;;;;;;;;;15.70;99.90;;;;;;5116467;28;20082;-48
2023/07/14 04:38:22;;;;;;;7.30;4.10;;;15.70;99.90;;;;;;5115930;28;20280;-52
2023/07/14 04:40:48;;;;;;;8.82;3.92;;;15.80;99.90;;;;;;5116179;28;20052;-50
2023/07/14 04:43:14;;;;;;;9.13;4.32;;;15.70;99.90;;;;;;5116250;28;20397;-51
2023/07/14 04:45:42;;;;;;;7.13;3.90;;;15.70;99.90;;;;;;5116017;28;20047;-48
2023/07/14 04:48:11;;;;;;;9.77;4.00;;;15.80;99.90;;;;;;5114643;28;20093;-49
2023/07/14 04:50:37;;;;;;;9.45;4.00;;;15.80;99.90;;;;;;5115709;28;20055;-50
2023/07/14 04:53:05;;;;;;;6.30;3.58;;;15.80;99.90;;;;;;5115898;28;20044;-49
2023/07/14 04:55:38;;;;;;;7.88;3.88;;;15.90;99.90;;;;;;5115795;28;20048;-50
2023/07/14 04:58:04;;;;;;;7.20;3.42;;;15.90;99.90;;;;;;5115661;28;20039;-49
2023/07/14 05:00:31;;;;;;;8.90;3.92;;;15.90;99.90;;;;;;5114880;28;20048;-48
2023/07/14 05:02:56;;;;;;;;;;;16.00;99.90;;;;;;5115953;28;20089;-48
2023/07/14 05:05:24;;;;;;;6.88;3.83;;;16.00;99.90;;;;;;5115425;28;19919;-48
2023/07/14 05:07:50;;;;;;;6.45;3.30;;;16.00;99.90;;;;;;5114300;28;20055;-49
2023/07/14 05:10:17;;;;;;;6.28;2.83;;;16.10;99.90;;;;;;5115500;28;20047;-49
2023/07/14 05:12:43;;;;;;;8.02;3.30;;;16.10;99.90;;;;;;5115218;28;20361;-48
2023/07/14 05:15:10;;;;;;;7.18;3.35;;;16.10;99.90;;;;;;5114269;28;20092;-49
2023/07/14 05:17:41;;;;;;;6.40;2.88;;;16.10;99.90;;;;;;5115248;28;20118;-48
2023/07/14 05:20:10;;;;;;;6.57;3.03;;;16.20;99.90;;;;;;5114472;28;20059;-49
2023/07/14 05:22:37;;;;;;;8.07;2.75;;;16.30;99.90;;;;;;5115542;28;20036;-49
2023/07/14 05:25:03;;;;;;;7.43;2.88;;;16.30;99.90;;;;;;5115131;28;20043;-47
2023/07/14 05:27:30;;;;;;;6.03;2.55;;;16.40;99.90;;;;;;5115456;28;20052;-47
2023/07/14 05:29:55;;;;;;;6.75;2.65;;;16.50;99.90;;;;;;5115141;27;20047;-47
2023/07/14 05:32:22;;;;;;;6.65;2.45;;;16.50;99.90;;;;;;5114824;28;20044;-47
2023/07/14 05:34:48;;;;;;;4.97;2.25;;;16.60;99.90;;;;;;5113734;28;20036;-47
2023/07/14 05:37:15;;;;;;;5.43;2.83;;;16.70;99.90;;;;;;5114926;28;20389;-47
2023/07/14 05:39:42;;;;;;;6.90;2.55;;;16.80;99.90;;;;;;5114719;28;20506;-48
2023/07/14 05:42:08;;;;;;;4.57;2.05;;;16.80;99.90;;;;;;5114011;28;20055;-46
2023/07/14 05:44:33;;;;;;;5.78;2.50;;;16.90;99.90;;;;;;5114806;28;20130;-45
2023/07/14 05:46:59;;;;;;;6.28;2.42;;;17.00;99.90;;;;;;5113344;28;20051;-48
2023/07/14 05:49:25;;;;;;;7.30;2.10;;;17.00;99.90;;;;;;5114894;28;20180;-48
2023/07/14 05:51:51;;;;;;;5.30;2.38;;;17.20;99.90;;;;;;5113358;28;20456;-47
2023/07/14 05:54:17;;;;;;;5.10;1.95;;;17.30;99.90;;;;;;5114692;28;20039;-47
2023/07/14 05:56:43;;;;;;;7.15;2.00;;;17.40;99.90;;;;;;5114479;28;20048;-47
2023/07/14 05:59:10;;;;;;;5.20;2.03;;;17.40;99.90;;;;;;5113275;28;20044;-48
2023/07/14 06:01:36;;;;;;;6.82;3.05;;;17.50;99.90;;;;;;5114246;28;20119;-47
2023/07/14 06:04:02;;;;;;;5.63;2.50;;;17.50;99.90;;;;;;5114461;28;20083;-47
2023/07/14 06:06:27;;;;;;;8.00;3.58;;;17.50;99.90;;;;;;5114322;28;20047;-48
2023/07/14 06:08:55;;;;;;;6.05;2.45;;;17.60;99.90;;;;;;5134676;27;20047;-47
2023/07/14 06:11:20;;;;;;;5.45;2.38;;;17.60;99.90;;;;;;5134715;27;20143;-48
2023/07/14 06:13:46;;;;;;;6.22;2.35;;;17.60;99.90;;;;;;5134760;27;20500;-49
2023/07/14 06:16:12;;;;;;;5.78;1.98;;;17.60;99.90;;;;;;5116252;27;20484;-47
2023/07/14 06:18:38;;;;;;;3.78;1.80;;;17.70;99.90;;;;;;5134591;27;20122;-48
2023/07/14 06:21:04;;;;;;;4.63;2.13;;;17.80;99.90;;;;;;5134772;27;20054;-47
2023/07/14 06:23:30;;;;;;;5.53;2.00;;;17.80;99.90;;;;;;5135043;27;20043;-47
2023/07/14 06:25:57;;;;;;;5.88;2.65;;;17.90;99.90;;;;;;5116359;27;20548;-47
2023/07/14 06:28:24;;;;;;;7.07;2.58;;;17.90;99.90;;;;;;5134763;27;20047;-45
2023/07/14 06:30:58;;;;;;;6.10;2.00;;;17.90;99.90;;;;;;5134427;27;20043;-45
2023/07/14 06:33:24;;;;;;;5.88;2.03;;;18.00;99.90;;;;;;5116861;27;20050;-45
2023/07/14 06:35:51;;;;;;;5.30;2.30;;;18.10;99.90;;;;;;5134595;28;20039;-45
2023/07/14 06:38:17;;;;;;;7.15;2.00;;;18.10;99.90;;;;;;5134386;28;20592;-45
2023/07/14 06:40:42;;;;;;;4.72;1.67;;;18.20;99.90;;;;;;5116460;28;20040;-46
2023/07/14 06:43:09;;;;;;;15.73;2.88;;;18.30;99.90;;;;;;5099439;28;20047;-45
2023/07/14 06:45:37;;;;;;;4.68;2.17;;;18.30;99.90;;;;;;5134368;28;20058;-47
2023/07/14 06:48:03;;;;;;;5.65;1.80;;;18.40;99.90;;;;;;5116394;28;20050;-45
2023/07/14 06:50:29;;;;;;;5.15;1.80;;;18.40;99.90;;;;;;5116379;28;20050;-46
2023/07/14 06:52:55;;;;;;;5.55;2.05;;;18.50;99.90;;;;;;5134418;28;20039;-46
2023/07/14 06:55:21;;;;;;;7.28;2.42;;;18.50;99.90;;;;;;5134457;28;20091;-45
2023/07/14 06:57:46;;;;;;;6.13;1.75;;;18.60;99.90;;;;;;5134199;28;20422;-46
2023/07/14 07:00:13;;;;;;;4.35;2.13;;;18.60;99.90;;;;;;5134149;28;20043;-45
2023/07/14 07:02:39;;;;;;;;;;;18.70;99.90;;;;;;5134751;28;20044;-46
2023/07/14 07:05:06;;;;;;;4.65;1.77;;;18.80;99.90;;;;;;5134557;28;19927;-45
2023/07/14 07:07:35;;;;;;;5.85;1.95;;;18.90;99.90;;;;;;5112727;28;20108;-45
2023/07/14 07:10:02;;;;;;;4.35;1.80;;;18.90;99.90;;;;;;5113687;28;20092;-47
2023/07/14 07:12:27;;;;;;;4.75;2.03;;;19.00;99.90;;;;;;5113580;28;20420;-45
2023/07/14 07:14:53;;;;;;;4.30;1.63;;;19.10;99.90;;;;;;5112556;28;20036;-45
2023/07/14 07:17:19;;;;;;;5.45;2.08;;;19.10;99.90;;;;;;5113651;28;20427;-45
2023/07/14 07:19:44;;;;;;;4.95;1.98;;;19.10;99.90;;;;;;5112503;28;20043;-46
2023/07/14 07:22:10;;;;;;;6.85;3.17;;;19.20;99.90;;;;;;5113467;28;20089;-45
2023/07/14 07:24:36;;;;;;;7.13;2.35;;;19.30;99.90;;;;;;5113510;28;20047;-46
2023/07/14 07:27:02;;;;;;;5.60;2.10;;;19.30;99.90;;;;;;5113444;28;20458;-46
2023/07/14 07:29:30;;;;;;;6.05;2.13;;;19.30;99.90;;;;;;5113326;28;20082;-48
2023/07/14 07:31:56;;;;;;;6.32;2.30;;;19.40;99.90;;;;;;5113503;28;20044;-45
2023/07/14 07:34:22;;;;;;;;;;;19.50;99.90;;;;;;5113985;28;20459;-46
2023/07/14 07:36:47;;;;;;;3.28;1.27;;;19.70;99.90;;;;;;5112466;28;19969;-45
2023/07/14 07:39:13;;;;;;;4.82;1.40;;;20.00;99.90;;;;;;5117164;28;20044;-46
2023/07/14 07:41:39;;;;;;;6.00;1.40;;;20.20;99.90;;;;;;5117285;28;20071;-45
2023/07/14 07:44:08;;;;;;;;;;;20.30;99.90;;;;;;5117366;28;20498;-46
2023/07/14 07:46:35;;;;;;;4.13;1.23;;;20.30;99.90;;;;;;5116967;28;19920;-45
2023/07/14 07:49:00;;;;;;;3.55;1.30;;;20.20;99.90;;;;;;5115935;28;20048;-45
2023/07/14 07:51:26;;;;;;;2.70;1.25;;;20.10;99.90;;;;;;5116844;28;20050;-45
2023/07/14 07:53:52;;;;;;;3.95;1.10;;;20.10;99.90;;;;;;5117140;28;20039;-45
2023/07/14 07:56:18;;;;;;;2.15;0.90;;;20.00;99.90;;;;;;5116803;28;20043;-45
2023/07/14 07:58:44;;;;;;;2.45;0.80;;;20.00;99.90;;;;;;5117012;28;20060;-45
2023/07/14 08:01:21;;;;;;;4.35;1.17;;;19.90;99.90;;;;;;5116909;28;20075;-46
2023/07/14 08:03:47;;;;;;;2.80;0.80;;;19.80;99.90;;;;;;5116863;28;20054;-46
2023/07/14 08:06:13;;;;;;;2.90;1.02;;;19.80;99.90;;;;;;5115458;28;20048;-45
2023/07/14 08:08:40;;;;;;;4.35;1.35;;;19.70;99.90;;;;;;5132635;27;20487;-46
2023/07/14 08:11:10;;;;;;;4.13;1.58;;;19.70;99.90;;;;;;5136987;27;20121;-45
2023/07/14 08:13:36;;;;;;;3.20;1.13;;;19.60;99.90;;;;;;5137500;27;20074;-45
2023/07/14 08:16:02;;;;;;;3.90;1.10;;;19.60;99.90;;;;;;5136991;27;20423;-46
2023/07/14 08:18:29;;;;;;;3.65;1.10;;;19.60;99.90;;;;;;5118812;27;20093;-46
2023/07/14 08:20:54;;;;;;;3.50;1.10;;;19.70;99.90;;;;;;5136895;27;20058;-45
2023/07/14 08:23:22;;;;;;;3.83;1.17;;;19.60;99.90;;;;;;5136812;27;20043;-45
2023/07/14 08:26:03;;;;;;;4.63;1.20;;;19.60;99.90;;;;;;5118734;27;20506;-46
2023/07/14 08:28:30;;;;;;;4.20;1.27;;;19.60;99.90;;;;;;5136988;27;20395;-46
2023/07/14 08:30:59;;;;;;;3.80;1.40;;;19.60;99.90;;;;;;5136761;27;20046;-46
2023/07/14 08:33:26;;;;;;;2.42;1.00;;;19.70;99.90;;;;;;5136645;27;20051;-46
2023/07/14 08:35:53;;;;;;;3.35;1.27;;;19.70;99.90;;;;;;5136600;27;20176;-46
2023/07/14 08:38:20;;;;;;;4.45;1.35;;;19.80;99.90;;;;;;5136580;27;20074;-45
2023/07/14 08:40:48;;;;;;;4.45;1.30;;;19.80;99.90;;;;;;5136659;27;20437;-45
2023/07/14 08:43:32;;;;;;;3.25;1.20;;;19.80;99.90;;;;;;5136446;27;20050;-46
2023/07/14 08:46:23;;;;;;;4.65;1.63;;;19.90;99.90;;;;;;5136689;27;20043;-46
2023/07/14 08:49:10;;;;;;;3.60;1.40;;;19.80;99.90;;;;;;5136584;27;20055;-46
2023/07/14 08:51:40;;;;;;;3.40;1.13;;;19.80;99.90;;;;;;5136327;27;20117;-46
2023/07/14 08:54:19;;;;;;;6.05;1.58;;;19.80;99.90;;;;;;5136288;27;20515;-46
2023/07/14 08:56:46;;;;;;;4.43;1.30;;;19.90;99.90;;;;;;5136273;27;20047;-46
2023/07/14 08:59:25;;;;;;;3.90;1.30;;;19.80;99.90;;;;;;5136378;27;20050;-47
2023/07/14 09:01:56;;;;;;;3.03;1.20;;;19.80;99.90;;;;;;5135984;27;20492;-46
2023/07/14 09:04:25;;;;;;;3.28;1.10;;;19.80;99.90;;;;;;5117870;27;20081;-45
2023/07/14 09:06:52;;;;;;;3.78;1.48;;;19.80;99.90;;;;;;5135749;27;20083;-45
2023/07/14 09:09:33;;;;;;;4.47;1.60;;;19.80;99.90;;;;;;5135932;27;20062;-46
2023/07/14 09:12:28;;;;;;;2.88;1.20;;;19.80;99.90;;;;;;5136001;27;20177;-46
2023/07/14 09:14:56;;;;;;;4.25;1.40;;;19.90;99.90;;;;;;5135873;27;20099;-46
2023/07/14 09:17:36;;;;;;;1.60;0.85;;;20.00;99.90;;;;;;5117688;27;20039;-46
2023/07/14 09:20:29;;;;;;;3.28;0.93;;;20.00;99.90;;;;;;5135647;27;20635;-46
2023/07/14 09:23:22;;;;;;;2.33;0.80;;;20.00;99.90;;;;;;5135958;27;20073;-47
2023/07/14 09:26:06;;;;;;;4.78;1.13;;;20.00;99.90;;;;;;5135617;27;20047;-45
2023/07/14 09:28:41;;;;;;;2.90;0.90;;;19.90;99.90;;;;;;5135749;27;20076;-45
2023/07/14 09:31:37;;;;;;;3.05;1.00;;;19.90;99.90;;;;;;5135539;27;20043;-45
2023/07/14 09:34:10;;;;;;;3.13;1.00;;;20.00;99.90;;;;;;5117531;27;20054;-45
2023/07/14 09:36:38;;;;;;;2.85;0.80;;;20.00;99.90;;;;;;5135329;27;20089;-46
2023/07/14 09:39:10;;;;;;;3.20;0.98;;;20.10;99.90;;;;;;5135713;27;20097;-45
2023/07/14 09:41:35;;;;;;;3.10;0.90;;;20.20;99.90;;;;;;5117428;27;20043;-45
2023/07/14 09:44:01;;;;;;;2.08;0.88;;;20.30;99.90;;;;;;5135460;27;20373;-47
2023/07/14 09:46:46;;;;;;;3.05;0.80;;;20.40;99.90;;;;;;5135464;27;20067;-45
2023/07/14 09:49:40;;;;;;;2.03;0.88;;;20.50;99.90;;;;;;5117399;27;20051;-48
2023/07/14 09:52:18;;;;;;;2.78;0.95;;;20.50;99.90;;;;;;5117114;27;20051;-46
2023/07/14 09:54:58;;;;;;;1.60;0.70;;;20.50;99.90;;;;;;5135110;27;20050;-46
2023/07/14 09:57:31;;;;;;;2.65;0.75;;;20.40;99.90;;;;;;5134917;27;20050;-46
2023/07/14 10:00:13;;;;;;;3.13;1.00;;;20.30;99.90;;;;;;5134795;27;20051;-45
2023/07/14 10:02:40;;;;;;;1.83;0.77;;;20.30;99.90;;;;;;5135155;27;20047;-45
2023/07/14 10:05:34;;;;;;;;;;;20.40;99.90;;;;;;5100220;27;20065;-45
2023/07/14 10:08:02;;;;;;;3.67;1.02;;;20.40;99.90;;;;;;5116553;27;19919;-45
2023/07/14 10:10:30;;;;;;;2.80;0.93;;;20.40;99.90;;;;;;5135050;27;20057;-46
2023/07/14 10:12:56;;;;;;;1.35;0.50;;;20.50;99.90;;;;;;5134796;27;20039;-46
2023/07/14 10:15:33;;;;;;;3.80;0.85;;;20.60;99.90;;;;;;5134931;27;20043;-46
2023/07/14 10:18:05;;;;;;;3.28;0.90;;;20.70;99.90;;;;;;5135120;27;20479;-46
2023/07/14 10:20:33;;;;;;;3.35;1.02;;;20.80;99.90;;;;;;5134596;27;20530;-46
2023/07/14 10:22:59;;;;;;;2.70;1.00;;;20.90;99.90;;;;;;5134761;27;20039;-45
2023/07/14 10:25:27;;;;;;;5.30;0.93;;;21.00;99.90;;;;;;5134728;27;20134;-45
2023/07/14 10:28:13;;;;;;;2.10;1.00;;;21.10;99.90;;;;;;5116465;27;20046;-46
2023/07/14 10:30:39;;;;;;;4.70;0.98;;;21.10;99.90;;;;;;5134555;27;20487;-46
2023/07/14 10:33:12;;;;;;;3.92;1.13;;;21.10;99.90;;;;;;5134437;27;20050;-46
2023/07/14 10:35:38;;;;;;;2.17;0.90;;;21.10;99.90;;;;;;5135039;27;20392;-47
2023/07/14 10:38:13;;;;;;;3.08;1.05;;;21.10;99.90;;;;;;5134416;27;20047;-45
2023/07/14 10:40:44;;;;;;;4.00;1.13;;;21.10;99.90;;;;;;5134553;28;20183;-46
2023/07/14 10:43:29;;;;;;;1.85;0.90;;;21.10;99.90;;;;;;5134469;28;20097;-45
2023/07/14 10:46:03;;;;;;;2.42;0.75;;;21.20;99.90;;;;;;5116286;28;20047;-45
2023/07/14 10:48:34;;;;;;;2.88;0.90;;;21.40;99.90;;;;;;5134467;28;20039;-45
2023/07/14 10:51:13;;;;;;;2.45;0.90;;;21.60;99.90;;;;;;5134447;28;20041;-47
2023/07/14 10:53:49;;;;;;;2.72;1.00;;;21.90;99.90;;;;;;5134477;28;20100;-45
2023/07/14 10:56:20;;;;;;;;;;;22.00;99.90;;;;;;5134959;28;20046;-47
2023/07/14 10:58:55;;;;;;;2.47;0.98;;;22.00;99.90;;;;;;5134377;28;20356;-46
2023/07/14 11:01:35;;;;;;;2.78;1.10;;;22.10;99.90;;;;;;5134433;28;20079;-47
2023/07/14 11:04:19;;;;;;;3.33;1.00;;;22.10;99.90;;;;;;5116119;28;20043;-46
2023/07/14 11:06:48;;;;;;;2.50;0.95;;;22.40;99.90;;;;;;5134395;28;20104;-45
2023/07/14 11:09:14;;;;;;;4.18;1.17;;;22.60;99.90;;;;;;5134366;28;20055;-46
2023/07/14 11:11:59;;;;;;;2.10;0.93;;;22.80;99.90;;;;;;5134135;27;20051;-46
2023/07/14 11:15:07;;;;;;;2.78;1.02;;;23.00;99.90;;;;;;5138233;27;20083;-45
2023/07/14 11:17:51;;;;;;;3.55;1.20;;;23.40;99.90;;;;;;5127063;27;20541;-46
2023/07/14 11:20:26;;;;;;;3.30;0.98;;;23.60;99.90;;;;;;5138044;27;20055;-46
2023/07/14 11:23:27;;;;;;;2.38;0.80;;;23.80;99.90;;;;;;5138046;27;20055;-50
2023/07/14 11:25:59;;;;;;;3.10;0.95;;;23.80;99.90;;;;;;5138410;27;20039;-46
2023/07/14 11:29:04;;;;;;;2.33;1.00;;;23.70;99.90;;;;;;5137973;27;20054;-47
2023/07/14 11:31:34;;;;;;;3.35;1.00;;;23.60;99.90;;;;;;5123707;27;20055;-45
2023/07/14 11:34:23;;;;;;;2.90;0.93;;;23.60;99.90;;;;;;5138235;27;20377;-46
2023/07/14 11:37:23;;;;;;;3.28;0.90;;;23.40;99.90;;;;;;5119847;27;20122;-47
2023/07/14 11:39:52;;;;;;;2.53;1.00;;;23.30;99.90;;;;;;5137641;27;20531;-47
2023/07/14 11:42:25;;;;;;;3.10;1.10;;;23.10;99.90;;;;;;5137905;27;20047;-47
2023/07/14 11:44:52;;;;;;;3.60;1.35;;;23.10;99.90;;;;;;5137588;27;20079;-46
2023/07/14 11:47:30;;;;;;;4.20;1.38;;;23.00;99.90;;;;;;5137608;27;20079;-47
2023/07/14 11:50:00;;;;;;;4.82;1.40;;;23.00;99.90;;;;;;5137589;27;20047;-46
2023/07/14 11:52:29;;;;;;;2.80;1.00;;;23.10;99.90;;;;;;5119424;27;20047;-46
2023/07/14 11:54:59;;;;;;;3.15;1.00;;;23.20;99.90;;;;;;5137565;27;20039;-46
2023/07/14 11:57:28;;;;;;;2.63;1.23;;;23.40;99.90;;;;;;5137429;27;20496;-46
2023/07/14 12:00:24;;;;;;;3.80;1.27;;;23.50;99.90;;;;;;5137415;27;20487;-47
2023/07/14 12:02:56;;;;;;;3.60;1.13;;;23.80;99.90;;;;;;5118744;27;20066;-46
2023/07/14 12:05:32;;;;;;;3.85;1.27;;;23.80;99.30;;;;;;5119470;27;20372;-46
2023/07/14 12:08:10;;;;;;;4.22;1.45;;;23.80;99.70;;;;;;5137016;27;20433;-46
2023/07/14 12:10:46;;;;;;;3.80;1.25;;;23.80;99.00;;;;;;5137099;27;20054;-47
2023/07/14 12:13:18;;;;;;;3.42;1.27;;;24.00;97.80;;;;;;5136936;27;20122;-46
2023/07/14 12:15:56;;;;;;;2.65;1.20;;;24.20;98.80;;;;;;5119396;27;20054;-46
2023/07/14 12:18:22;;;;;;;2.53;1.00;;;24.10;96.60;;;;;;5137059;27;20115;-46
2023/07/14 12:20:48;;;;;;;;;;;23.90;97.70;;;;;;5137466;27;20495;-46
2023/07/14 12:23:23;;;;;;;3.72;1.17;;;23.80;97.10;;;;;;5136323;27;20393;-48
2023/07/14 12:25:52;;;;;;;3.45;1.27;;;23.60;98.60;;;;;;5136853;27;20089;-46
2023/07/14 12:28:30;;;;;;;2.72;0.80;;;23.50;98.80;;;;;;5136939;27;20130;-48
2023/07/14 12:30:59;;;;;;;3.78;1.20;;;23.50;98.80;;;;;;5136823;27;20043;-46
2023/07/14 12:33:25;;;;;;;3.45;1.20;;;23.40;99.10;;;;;;5136564;27;20126;-46
2023/07/14 12:35:51;;;;;;;3.08;1.00;;;23.40;99.20;;;;;;5136640;27;20127;-46
2023/07/14 12:38:20;;;;;;;3.25;1.38;;;23.40;99.10;;;;;;5136456;27;20043;-46
2023/07/14 12:40:47;;;;;;;3.03;1.30;;;23.30;97.80;;;;;;5136696;27;20479;-46
2023/07/14 12:43:30;;;;;;;3.45;1.13;;;23.40;98.30;;;;;;5136458;27;20488;-47
2023/07/14 12:45:57;;;;;;;3.15;1.27;;;23.40;98.20;;;;;;5136579;27;20050;-47
2023/07/14 12:48:32;;;;;;;5.30;1.27;;;23.40;97.80;;;;;;5136190;27;20130;-46
2023/07/14 12:51:07;;;;;;;4.00;1.10;;;23.20;97.70;;;;;;5136465;27;20043;-46
2023/07/14 12:53:33;;;;;;;3.05;1.25;;;23.00;97.70;;;;;;5136253;27;20631;-47
2023/07/14 12:56:12;;;;;;;3.83;1.38;;;22.90;98.20;;;;;;5118171;27;20059;-45
2023/07/14 12:58:38;;;;;;;2.95;1.23;;;22.70;97.90;;;;;;5136136;27;20039;-47
2023/07/14 13:01:04;;;;;;;4.10;1.40;;;22.60;98.30;;;;;;5136142;27;20047;-45
2023/07/14 13:03:35;;;;;;;;;;;22.50;98.30;;;;;;5119147;27;20051;-46
2023/07/14 13:06:01;;;;;;;3.92;1.48;;;22.40;97.30;;;;;;5136257;27;19995;-45
2023/07/14 13:08:28;;;;;;;5.20;1.25;;;22.40;98.30;;;;;;5136018;27;20055;-46